createdAt,value
2018-03-28T00:02:09.445Z,15.20
2018-03-28T00:04:36.994Z,14.90
2018-03-28T00:07:04.914Z,13.80
2018-03-28T00:09:32.471Z,12.93
2018-03-28T00:12:01.826Z,13.93
2018-03-28T00:14:29.763Z,12.90
2018-03-28T00:16:57.516Z,14.23
2018-03-28T00:19:25.200Z,15.70
2018-03-28T00:21:52.997Z,13.50
2018-03-28T00:24:20.818Z,14.30
2018-03-28T00:26:48.655Z,14.93
2018-03-28T00:29:16.604Z,13.90
2018-03-28T00:31:44.424Z,13.13
2018-03-28T00:34:12.088Z,14.50
2018-03-28T00:36:39.653Z,13.73
2018-03-28T00:39:07.340Z,12.67
2018-03-28T00:41:34.933Z,13.20
2018-03-28T00:44:02.775Z,12.03
2018-03-28T00:46:30.396Z,15.17
2018-03-28T00:48:58.854Z,13.37
2018-03-28T00:51:37.479Z,13.00
2018-03-28T00:54:06.165Z,12.70
2018-03-28T00:56:33.986Z,13.07
2018-03-28T00:59:01.735Z,12.97
2018-03-28T01:01:29.789Z,12.00
2018-03-28T01:03:57.524Z,12.90
2018-03-28T01:06:25.121Z,13.40
2018-03-28T01:08:53.564Z,15.53
2018-03-28T01:11:21.166Z,12.70
2018-03-28T01:13:48.879Z,12.93
2018-03-28T01:16:16.476Z,13.87
2018-03-28T01:18:44.100Z,12.60
2018-03-28T01:21:11.883Z,12.10
2018-03-28T01:23:39.483Z,12.47
2018-03-28T01:26:07.223Z,10.90
2018-03-28T01:28:34.834Z,12.33
2018-03-28T01:31:02.661Z,13.70
2018-03-28T01:33:30.269Z,11.80
2018-03-28T01:35:58.349Z,14.03
2018-03-28T01:38:26.109Z,13.80
2018-03-28T01:40:53.920Z,11.63
2018-03-28T01:43:22.311Z,11.47
2018-03-28T01:45:49.968Z,12.30
2018-03-28T01:48:17.786Z,11.37
2018-03-28T01:50:45.384Z,11.07
2018-03-28T01:53:13.297Z,11.40
2018-03-28T01:55:40.956Z,12.43
2018-03-28T01:58:08.664Z,12.37
2018-03-28T02:00:36.377Z,12.03
2018-03-28T02:03:03.984Z,11.90
2018-03-28T02:05:31.566Z,10.87
2018-03-28T02:07:59.665Z,11.60
2018-03-28T02:10:27.858Z,11.83
2018-03-28T02:12:55.629Z,12.43
2018-03-28T02:15:23.297Z,12.60
2018-03-28T02:17:50.980Z,12.30
2018-03-28T02:20:18.732Z,12.33
2018-03-28T02:22:46.459Z,13.70
2018-03-28T02:25:14.051Z,11.70
2018-03-28T02:27:42.017Z,10.50
2018-03-28T02:30:09.993Z,11.20
2018-03-28T02:32:38.040Z,11.17
2018-03-28T02:35:05.653Z,13.20
2018-03-28T02:37:33.353Z,12.90
2018-03-28T02:40:01.081Z,12.03
2018-03-28T02:42:28.945Z,12.47
2018-03-28T02:44:57.436Z,12.80
2018-03-28T02:47:25.201Z,13.50
2018-03-28T02:49:52.933Z,13.33
2018-03-28T02:52:20.536Z,12.43
2018-03-28T02:54:48.465Z,12.80
2018-03-28T02:57:16.195Z,10.80
2018-03-28T02:59:43.834Z,12.80
2018-03-28T03:02:11.624Z,14.00
2018-03-28T03:04:39.392Z,15.67
2018-03-28T03:07:07.325Z,13.60
2018-03-28T03:09:35.154Z,15.47
2018-03-28T03:12:02.888Z,15.30
2018-03-28T03:14:30.951Z,14.00
2018-03-28T03:16:58.923Z,13.30
2018-03-28T03:19:26.631Z,14.90
2018-03-28T03:21:54.326Z,16.30
2018-03-28T03:24:22.067Z,14.93
2018-03-28T03:26:49.745Z,15.40
2018-03-28T03:29:17.389Z,16.60
2018-03-28T03:31:45.229Z,15.80
2018-03-28T03:34:12.951Z,16.20
2018-03-28T03:36:40.698Z,16.30
2018-03-28T03:39:08.590Z,16.70
2018-03-28T03:41:36.235Z,15.63
2018-03-28T03:44:04.721Z,16.83
2018-03-28T03:46:32.387Z,17.73
2018-03-28T03:49:00.242Z,16.03
2018-03-28T03:51:27.915Z,14.00
2018-03-28T03:53:55.585Z,13.57
2018-03-28T03:56:23.464Z,11.60
2018-03-28T03:58:51.137Z,11.23
2018-03-28T04:01:18.694Z,10.30
2018-03-28T04:03:46.400Z,11.10
2018-03-28T04:06:14.117Z,11.43
2018-03-28T04:08:41.896Z,11.30
2018-03-28T04:11:09.660Z,12.03
2018-03-28T04:13:37.333Z,11.63
2018-03-28T04:16:05.111Z,11.50
2018-03-28T04:18:32.854Z,11.40
2018-03-28T04:21:00.947Z,11.80
2018-03-28T04:23:28.904Z,11.07
2018-03-28T04:25:56.969Z,10.33
2018-03-28T04:28:24.929Z,8.03
2018-03-28T04:30:53.500Z,9.37
2018-03-28T04:33:21.212Z,8.70
2018-03-28T04:35:48.911Z,8.33
2018-03-28T04:38:16.553Z,7.67
2018-03-28T04:40:44.323Z,7.63
2018-03-28T04:43:11.966Z,7.70
2018-03-28T04:45:40.161Z,7.67
2018-03-28T04:48:07.933Z,8.90
2018-03-28T04:50:35.714Z,7.00
2018-03-28T04:53:03.297Z,7.40
2018-03-28T04:55:31.255Z,7.30
2018-03-28T04:57:58.909Z,4.83
2018-03-28T05:00:26.682Z,6.90
2018-03-28T05:02:54.441Z,6.17
2018-03-28T05:05:22.243Z,5.53
2018-03-28T05:07:50.107Z,5.93
2018-03-28T05:10:17.774Z,5.10
2018-03-28T05:12:45.641Z,6.57
2018-03-28T05:15:13.290Z,6.60
2018-03-28T05:17:42.061Z,5.23
2018-03-28T05:20:10.274Z,5.23
2018-03-28T05:22:38.046Z,6.47
2018-03-28T05:25:06.184Z,5.43
2018-03-28T05:27:34.386Z,5.57
2018-03-28T05:30:02.144Z,4.60
2018-03-28T05:32:30.059Z,5.67
2018-03-28T05:34:57.792Z,6.03
2018-03-28T05:37:25.880Z,5.50
2018-03-28T05:39:53.676Z,5.47
2018-03-28T05:42:21.230Z,5.33
2018-03-28T05:44:49.003Z,5.53
2018-03-28T05:47:16.637Z,4.53
2018-03-28T05:49:44.343Z,5.23
2018-03-28T05:52:12.179Z,4.83
2018-03-28T05:54:39.854Z,4.63
2018-03-28T05:57:07.508Z,5.30
2018-03-28T05:59:35.326Z,4.80
2018-03-28T06:02:03.052Z,5.33
2018-03-28T06:04:30.774Z,5.20
2018-03-28T06:06:58.801Z,4.57
2018-03-28T06:09:26.433Z,5.13
2018-03-28T06:11:54.430Z,4.73
2018-03-28T06:14:22.221Z,4.03
2018-03-28T06:16:49.842Z,5.70
2018-03-28T06:19:17.806Z,5.47
2018-03-28T06:21:45.527Z,4.97
2018-03-28T06:24:13.181Z,5.47
2018-03-28T06:26:41.130Z,5.27
2018-03-28T06:29:08.682Z,4.60
2018-03-28T06:31:36.766Z,4.97
2018-03-28T06:34:04.728Z,5.20
2018-03-28T06:36:32.734Z,5.30
2018-03-28T06:39:00.515Z,5.07
2018-03-28T06:41:28.189Z,5.07
2018-03-28T06:43:56.439Z,5.20
2018-03-28T06:46:25.361Z,5.57
2018-03-28T06:48:52.824Z,5.13
2018-03-28T06:51:20.294Z,5.10
2018-03-28T06:53:48.738Z,5.20
2018-03-28T06:56:16.630Z,4.63
2018-03-28T06:58:44.090Z,5.10
2018-03-28T07:01:11.561Z,4.93
2018-03-28T07:03:39.046Z,4.87
2018-03-28T07:06:06.513Z,5.17
2018-03-28T07:08:33.965Z,4.90
2018-03-28T07:11:01.431Z,5.23
2018-03-28T07:13:28.900Z,4.03
2018-03-28T07:15:56.347Z,4.70
2018-03-28T07:18:23.926Z,4.93
2018-03-28T07:20:51.500Z,4.63
2018-03-28T07:23:19.071Z,4.50
2018-03-28T07:25:46.544Z,4.83
2018-03-28T07:28:14.431Z,4.53
2018-03-28T07:30:42.279Z,5.47
2018-03-28T07:33:10.149Z,4.73
2018-03-28T07:35:37.994Z,4.33
2018-03-28T07:38:05.905Z,5.17
2018-03-28T07:40:33.842Z,4.17
2018-03-28T07:43:01.329Z,4.30
2018-03-28T07:45:28.789Z,4.13
2018-03-28T07:47:56.693Z,5.20
2018-03-28T07:50:24.184Z,5.27
2018-03-28T07:52:51.669Z,5.93
2018-03-28T07:55:19.145Z,5.00
2018-03-28T07:57:46.658Z,5.37
2018-03-28T08:00:14.131Z,5.30
2018-03-28T08:02:41.649Z,7.03
2018-03-28T08:05:09.721Z,5.43
2018-03-28T08:07:37.581Z,5.43
2018-03-28T08:10:05.044Z,6.33
2018-03-28T08:15:06.419Z,5.47
2018-03-28T08:17:34.283Z,6.30
2018-03-28T08:20:01.733Z,6.30
2018-03-28T08:22:29.206Z,5.77
2018-03-28T08:24:56.665Z,5.07
2018-03-28T08:27:24.120Z,5.30
2018-03-28T08:29:51.708Z,6.67
2018-03-28T08:32:19.656Z,5.73
2018-03-28T08:34:48.038Z,6.20
2018-03-28T08:37:15.502Z,6.40
2018-03-28T08:39:42.976Z,5.90
2018-03-28T08:42:10.518Z,5.53
2018-03-28T08:44:37.966Z,5.50
2018-03-28T08:47:05.453Z,6.27
2018-03-28T08:49:33.137Z,6.93
2018-03-28T08:52:00.998Z,6.67
2018-03-28T08:54:28.973Z,5.73
2018-03-28T08:56:56.528Z,6.27
2018-03-28T08:59:24.048Z,6.70
2018-03-28T09:01:51.505Z,6.20
2018-03-28T09:04:19.805Z,6.03
2018-03-28T09:06:47.302Z,7.10
2018-03-28T09:09:14.777Z,6.47
2018-03-28T09:11:42.748Z,6.30
2018-03-28T09:14:10.210Z,6.30
2018-03-28T09:16:38.066Z,6.37
2018-03-28T09:19:05.528Z,6.17
2018-03-28T09:21:33.103Z,6.80
2018-03-28T09:24:00.649Z,6.20
2018-03-28T09:26:28.145Z,5.63
2018-03-28T09:28:56.047Z,6.53
2018-03-28T09:31:23.562Z,6.37
2018-03-28T09:33:51.027Z,7.00
2018-03-28T09:36:18.891Z,6.77
2018-03-28T09:38:46.448Z,6.17
2018-03-28T09:41:14.910Z,6.40
2018-03-28T09:43:42.377Z,7.90
2018-03-28T09:46:09.843Z,7.57
2018-03-28T09:48:37.408Z,7.40
2018-03-28T09:51:04.870Z,7.03
2018-03-28T09:53:32.370Z,7.40
2018-03-28T09:56:00.276Z,7.73
2018-03-28T09:58:27.727Z,7.63
2018-03-28T10:01:00.950Z,6.27
2018-03-28T10:03:28.408Z,7.87
2018-03-28T10:05:55.912Z,8.30
2018-03-28T10:08:23.437Z,7.20
2018-03-28T10:10:50.903Z,7.13
2018-03-28T10:13:18.382Z,7.27
2018-03-28T10:15:45.863Z,7.80
2018-03-28T10:18:13.349Z,7.80
2018-03-28T10:20:41.290Z,7.30
2018-03-28T10:23:08.757Z,6.07
2018-03-28T10:25:36.226Z,7.27
2018-03-28T10:28:03.680Z,6.50
2018-03-28T10:30:31.238Z,7.73
2018-03-28T10:32:58.685Z,6.37
2018-03-28T10:35:26.167Z,6.77
2018-03-28T10:37:53.626Z,7.20
2018-03-28T10:40:21.137Z,6.97
2018-03-28T10:42:48.571Z,6.57
2018-03-28T10:45:16.426Z,7.17
2018-03-28T10:47:43.903Z,7.43
2018-03-28T10:50:12.569Z,7.43
2018-03-28T10:52:40.426Z,6.60
2018-03-28T10:55:07.994Z,5.87
2018-03-28T10:57:35.479Z,6.30
2018-03-28T11:00:03.343Z,6.17
2018-03-28T11:02:30.896Z,5.63
2018-03-28T11:04:58.485Z,6.30
2018-03-28T11:07:26.026Z,5.97
2018-03-28T11:09:53.494Z,6.30
2018-03-28T11:12:20.963Z,5.87
2018-03-28T11:14:48.829Z,5.60
2018-03-28T11:17:16.309Z,4.83
2018-03-28T11:19:44.174Z,5.70
2018-03-28T11:22:12.030Z,5.17
2018-03-28T11:24:39.509Z,6.07
2018-03-28T11:27:07.371Z,6.27
2018-03-28T11:29:35.033Z,5.80
2018-03-28T11:32:02.491Z,6.50
2018-03-28T11:34:29.962Z,6.93
2018-03-28T11:36:57.429Z,7.33
2018-03-28T11:39:25.379Z,8.90
2018-03-28T11:41:52.958Z,9.87
2018-03-28T11:44:20.432Z,9.80
2018-03-28T11:46:47.920Z,10.50
2018-03-28T11:49:15.459Z,10.00
2018-03-28T11:51:43.331Z,8.67
2018-03-28T11:54:10.868Z,8.87
2018-03-28T11:56:38.348Z,9.07
2018-03-28T11:59:05.895Z,7.60
2018-03-28T12:01:33.413Z,7.43
2018-03-28T12:04:01.272Z,8.40
2018-03-28T12:06:28.852Z,8.10
2018-03-28T12:08:56.343Z,8.03
2018-03-28T12:11:23.820Z,7.00
2018-03-28T12:13:51.300Z,7.80
2018-03-28T12:16:18.762Z,6.10
2018-03-28T12:18:46.689Z,5.97
2018-03-28T12:21:14.165Z,5.47
2018-03-28T12:23:41.618Z,5.30
2018-03-28T12:26:09.076Z,6.07
2018-03-28T12:28:36.539Z,5.73
2018-03-28T12:31:04.015Z,5.93
2018-03-28T12:33:31.480Z,5.90
2018-03-28T12:35:59.058Z,5.27
2018-03-28T12:38:26.545Z,5.67
2018-03-28T12:40:54.458Z,5.87
2018-03-28T12:43:21.915Z,5.77
2018-03-28T12:45:49.427Z,5.77
2018-03-28T12:48:16.890Z,5.90
2018-03-28T12:50:44.778Z,9.27
2018-03-28T12:53:12.629Z,6.97
2018-03-28T12:55:40.568Z,5.57
2018-03-28T12:58:07.992Z,5.97
2018-03-28T13:00:35.446Z,5.70
2018-03-28T13:03:03.333Z,5.53
2018-03-28T13:05:30.817Z,7.73
2018-03-28T13:07:58.334Z,6.00
2018-03-28T13:10:25.777Z,6.40
2018-03-28T13:12:53.260Z,7.00
2018-03-28T13:15:21.130Z,7.10
2018-03-28T13:17:49.053Z,7.43
2018-03-28T13:20:16.538Z,5.63
2018-03-28T13:22:44.136Z,6.80
2018-03-28T13:25:11.990Z,5.83
2018-03-28T13:27:39.937Z,6.47
2018-03-28T13:30:07.517Z,6.17
2018-03-28T13:32:35.003Z,6.37
2018-03-28T13:35:02.866Z,6.60
2018-03-28T13:37:30.427Z,6.17
2018-03-28T13:39:57.913Z,6.53
2018-03-28T13:42:25.366Z,7.10
2018-03-28T13:44:53.350Z,6.70
2018-03-28T13:47:20.829Z,7.00
2018-03-28T13:49:48.314Z,7.13
2018-03-28T13:52:15.799Z,8.53
2018-03-28T13:54:43.279Z,6.60
2018-03-28T13:57:10.774Z,7.03
2018-03-28T13:59:38.231Z,6.87
2018-03-28T14:02:05.711Z,6.47
2018-03-28T14:04:33.816Z,6.03
2018-03-28T14:07:01.280Z,6.57
2018-03-28T14:09:28.796Z,7.23
2018-03-28T14:11:56.298Z,5.90
2018-03-28T14:14:23.798Z,5.40
2018-03-28T14:16:51.656Z,5.80
2018-03-28T14:19:19.529Z,5.87
2018-03-28T14:21:47.156Z,5.00
2018-03-28T14:24:14.593Z,5.73
2018-03-28T14:26:42.062Z,6.03
2018-03-28T14:29:09.535Z,5.17
2018-03-28T14:31:37.011Z,5.20
2018-03-28T14:34:04.473Z,5.20
2018-03-28T14:36:32.063Z,4.53
2018-03-28T14:38:59.531Z,4.80
2018-03-28T14:41:27.319Z,4.80
2018-03-28T14:43:55.186Z,5.57
2018-03-28T14:46:23.071Z,4.93
2018-03-28T14:48:50.540Z,4.90
2018-03-28T14:51:18.007Z,4.43
2018-03-28T14:53:45.494Z,3.97
2018-03-28T14:56:12.963Z,4.40
2018-03-28T14:58:40.442Z,4.40
2018-03-28T15:01:07.996Z,5.70
2018-03-28T15:03:35.476Z,4.60
2018-03-28T15:06:03.262Z,4.43
2018-03-28T15:08:31.208Z,5.63
2018-03-28T15:10:58.667Z,5.50
2018-03-28T15:13:26.129Z,6.30
2018-03-28T15:15:53.724Z,5.37
2018-03-28T15:18:21.455Z,6.57
2018-03-28T15:20:48.898Z,6.77
2018-03-28T15:23:16.850Z,6.50
2018-03-28T15:25:44.341Z,7.00
2018-03-28T15:28:11.824Z,7.10
2018-03-28T15:30:39.295Z,6.20
2018-03-28T15:33:06.749Z,6.60
2018-03-28T15:35:34.220Z,6.80
2018-03-28T15:38:01.778Z,6.20
2018-03-28T15:40:29.474Z,7.13
2018-03-28T15:42:57.353Z,5.60
2018-03-28T15:45:24.851Z,5.57
2018-03-28T15:47:52.307Z,5.73
2018-03-28T15:50:19.777Z,4.80
2018-03-28T15:52:47.242Z,4.17
2018-03-28T15:55:14.734Z,4.90
2018-03-28T15:57:42.190Z,5.07
2018-03-28T16:00:09.675Z,5.17
2018-03-28T16:02:37.612Z,5.20
2018-03-28T16:08:08.158Z,5.03
2018-03-28T16:13:31.966Z,5.03
2018-03-28T16:15:59.809Z,5.57
2018-03-28T16:18:27.616Z,5.37
2018-03-28T16:20:55.074Z,5.03
2018-03-28T16:23:22.691Z,5.70
2018-03-28T16:25:50.247Z,6.47
2018-03-28T16:28:18.320Z,6.97
2018-03-28T16:30:45.770Z,5.50
2018-03-28T16:33:13.236Z,5.40
2018-03-28T16:35:40.706Z,5.67
2018-03-28T16:38:08.185Z,5.47
2018-03-28T16:40:35.644Z,5.73
2018-03-28T16:43:03.118Z,5.50
2018-03-28T16:45:30.584Z,4.70
2018-03-28T16:47:58.057Z,5.20
2018-03-28T16:50:25.925Z,5.40
2018-03-28T16:52:53.827Z,5.97
2018-03-28T16:55:21.327Z,6.27
2018-03-28T16:57:48.762Z,6.37
2018-03-28T17:00:16.249Z,5.70
2018-03-28T17:02:43.738Z,6.10
2018-03-28T17:05:11.695Z,6.13
2018-03-28T17:07:39.178Z,6.50
2018-03-28T17:10:06.624Z,6.10
2018-03-28T17:12:34.091Z,6.20
2018-03-28T17:15:01.569Z,6.73
2018-03-28T17:17:29.121Z,5.80
2018-03-28T17:19:56.720Z,5.63
2018-03-28T17:22:24.231Z,7.50
2018-03-28T17:24:51.704Z,6.30
2018-03-28T17:27:19.792Z,6.00
2018-03-28T17:29:47.538Z,6.23
2018-03-28T17:32:15.002Z,4.87
2018-03-28T17:34:42.445Z,5.80
2018-03-28T17:37:09.904Z,5.70
2018-03-28T17:39:37.361Z,6.03
2018-03-28T17:42:04.822Z,6.33
2018-03-28T17:44:32.287Z,6.00
2018-03-28T17:46:59.766Z,5.83
2018-03-28T17:49:27.250Z,6.43
2018-03-28T17:51:54.796Z,6.30
2018-03-28T17:54:22.365Z,5.57
2018-03-28T17:56:49.858Z,5.80
2018-03-28T17:59:17.651Z,6.33
2018-03-28T18:01:45.177Z,7.00
2018-03-28T18:04:13.378Z,7.70
2018-03-28T18:06:40.854Z,9.27
2018-03-28T18:09:08.418Z,8.97
2018-03-28T18:11:35.879Z,9.53
2018-03-28T18:14:03.347Z,10.47
2018-03-28T18:16:30.952Z,9.70
2018-03-28T18:18:58.407Z,9.87
2018-03-28T18:21:25.892Z,9.93
2018-03-28T18:23:53.771Z,9.40
2018-03-28T18:26:21.718Z,10.00
2018-03-28T18:28:49.185Z,11.60
2018-03-28T18:31:16.999Z,8.63
2018-03-28T18:33:44.507Z,8.80
2018-03-28T18:36:11.974Z,8.20
2018-03-28T18:38:39.494Z,9.17
2018-03-28T18:41:07.004Z,9.73
2018-03-28T18:43:34.575Z,10.27
2018-03-28T18:46:02.058Z,8.17
2018-03-28T18:48:29.908Z,9.37
2018-03-28T18:50:57.466Z,9.20
2018-03-28T18:53:25.083Z,8.90
2018-03-28T18:55:52.564Z,9.10
2018-03-28T18:58:20.028Z,9.00
2018-03-28T19:00:47.617Z,9.27
2018-03-28T19:03:15.086Z,9.50
2018-03-28T19:05:42.575Z,9.70
2018-03-28T19:08:11.443Z,10.23
2018-03-28T19:10:39.732Z,10.70
2018-03-28T19:13:07.219Z,10.60
2018-03-28T19:15:34.799Z,10.27
2018-03-28T19:18:02.258Z,9.00
2018-03-28T19:20:29.768Z,7.70
2018-03-28T19:22:57.354Z,8.37
2018-03-28T19:25:24.807Z,6.70
2018-03-28T19:27:52.316Z,7.00
2018-03-28T19:30:19.851Z,7.70
2018-03-28T19:32:47.702Z,6.60
2018-03-28T19:35:15.249Z,7.40
2018-03-28T19:37:42.728Z,6.13
2018-03-28T19:40:10.190Z,6.60
2018-03-28T19:42:37.658Z,6.23
2018-03-28T19:45:05.202Z,6.23
2018-03-28T19:47:32.665Z,5.90
2018-03-28T19:50:00.140Z,5.80
2018-03-28T19:52:27.695Z,5.97
2018-03-28T19:54:55.314Z,5.90
2018-03-28T19:57:22.764Z,6.10
2018-03-28T19:59:50.378Z,4.73
2018-03-28T20:02:17.851Z,3.40
2018-03-28T20:04:45.301Z,3.10
2018-03-28T20:07:12.939Z,2.20
2018-03-28T20:09:40.434Z,1.70
2018-03-28T20:12:07.994Z,1.60
2018-03-28T20:14:35.453Z,1.50
2018-03-28T20:17:02.921Z,1.07
2018-03-28T20:19:30.497Z,1.50
2018-03-28T20:21:58.046Z,1.30
2018-03-28T20:24:25.604Z,1.03
2018-03-28T20:26:53.058Z,1.20
2018-03-28T20:29:20.542Z,1.10
2018-03-28T20:31:47.997Z,1.10
2018-03-28T20:34:15.470Z,1.43
2018-03-28T20:36:43.039Z,1.00
2018-03-28T20:39:11.423Z,1.27
2018-03-28T20:41:38.915Z,1.70
2018-03-28T20:44:06.878Z,1.80
2018-03-28T20:46:35.186Z,1.47
2018-03-28T20:49:02.755Z,1.23
2018-03-28T20:51:30.263Z,1.40
2018-03-28T20:53:57.741Z,1.20
2018-03-28T20:56:25.586Z,1.50
2018-03-28T20:58:53.054Z,1.50
2018-03-28T21:01:21.040Z,1.47
2018-03-28T21:03:48.704Z,1.60
2018-03-28T21:06:16.582Z,1.40
2018-03-28T21:08:44.037Z,1.47
2018-03-28T21:11:11.484Z,1.40
2018-03-28T21:13:39.056Z,2.07
2018-03-28T21:16:06.620Z,1.50
2018-03-28T21:18:34.472Z,2.00
2018-03-28T21:21:02.007Z,1.73
2018-03-28T21:23:29.457Z,2.07
2018-03-28T21:25:56.911Z,1.90
2018-03-28T21:28:24.765Z,1.80
2018-03-28T21:30:52.229Z,2.27
2018-03-28T21:33:19.676Z,1.60
2018-03-28T21:35:47.128Z,1.90
2018-03-28T21:38:14.598Z,2.30
2018-03-28T21:40:42.058Z,2.40
2018-03-28T21:43:09.950Z,3.77
2018-03-28T21:45:37.910Z,3.17
2018-03-28T21:48:05.345Z,2.80
2018-03-28T21:50:32.802Z,3.27
2018-03-28T21:53:00.288Z,4.00
2018-03-28T21:55:27.741Z,4.60
2018-03-28T21:57:55.245Z,4.57
2018-03-28T22:00:22.704Z,4.80
2018-03-28T22:02:50.699Z,4.03
2018-03-28T22:05:18.137Z,4.30
2018-03-28T22:07:46.078Z,4.10
2018-03-28T22:10:13.534Z,4.27
2018-03-28T22:12:41.437Z,3.70
2018-03-28T22:15:09.169Z,3.33
2018-03-28T22:17:36.620Z,3.90
2018-03-28T22:20:04.069Z,3.30
2018-03-28T22:22:31.524Z,4.03
2018-03-28T22:24:59.085Z,4.17
2018-03-28T22:27:26.583Z,3.73
2018-03-28T22:29:54.038Z,4.20
2018-03-28T22:32:21.494Z,3.30
2018-03-28T22:34:48.964Z,3.77
2018-03-28T22:37:16.434Z,3.63
2018-03-28T22:39:43.905Z,4.17
2018-03-28T22:42:11.502Z,4.57
2018-03-28T22:44:39.495Z,3.30
2018-03-28T22:47:06.990Z,4.30
2018-03-28T22:49:34.442Z,4.03
2018-03-28T22:52:01.915Z,4.37
2018-03-28T22:54:29.382Z,4.20
2018-03-28T22:56:56.907Z,4.10
2018-03-28T22:59:24.421Z,4.20
2018-03-28T23:01:51.885Z,3.80
2018-03-28T23:04:19.446Z,3.73
2018-03-28T23:06:46.897Z,3.57
2018-03-28T23:09:14.356Z,3.80
2018-03-28T23:11:41.801Z,3.77
2018-03-28T23:14:09.257Z,4.03
2018-03-28T23:16:36.705Z,3.70
2018-03-28T23:19:04.158Z,4.00
2018-03-28T23:21:31.630Z,3.90
2018-03-28T23:23:59.121Z,4.07
2018-03-28T23:26:26.653Z,4.00
2018-03-28T23:28:54.100Z,4.60
2018-03-28T23:31:21.550Z,3.80
2018-03-28T23:33:49.447Z,3.30
2018-03-28T23:36:16.956Z,3.70
2018-03-28T23:38:44.521Z,3.70
2018-03-28T23:41:11.981Z,3.50
2018-03-28T23:43:39.423Z,3.90
2018-03-28T23:46:06.892Z,2.77
2018-03-28T23:48:34.353Z,3.50
2018-03-28T23:51:01.806Z,3.37
2018-03-28T23:53:29.259Z,3.27
2018-03-28T23:55:56.704Z,2.43
2018-03-28T23:58:24.153Z,2.93
